Time,TemperatureF,DewpointF,PressureIn,WindDirection,WindDirectionDegrees,WindSpeedMPH,WindSpeedGustMPH,Humidity,HourlyPrecipIn,Conditions,Clouds,dailyrainin,SoftwareType,DateUTC
2013-03-17 00:03:00,61.7,48.2,29.92,NNE,22,0.0,0.0,61,0.00,,,0.00,WUHU21623XXSP,2013-03-17 04:03:00,
2013-03-17 00:08:00,61.2,47.7,29.92,East,90,0.0,0.0,61,0.00,,,0.00,WUHU21623XXSP,2013-03-17 04:08:00,
2013-03-17 00:13:00,61.0,47.5,29.92,East,90,0.0,0.0,61,0.00,,,0.00,WUHU21623XXSP,2013-03-17 04:13:00,
2013-03-17 00:18:00,61.0,48.3,29.92,ESE,112,0.0,0.0,63,0.00,,,0.00,WUHU21623XXSP,2013-03-17 04:18:00,
2013-03-17 00:23:00,61.0,48.3,29.92,ESE,112,0.0,0.0,63,0.00,,,0.00,WUHU21623XXSP,2013-03-17 04:23:00,
2013-03-17 00:28:00,60.6,48.0,29.92,ESE,112,0.0,0.0,63,0.00,,,0.00,WUHU21623XXSP,2013-03-17 04:28:00,
2013-03-17 00:33:00,60.6,48.0,29.92,ESE,112,0.0,0.0,63,0.00,,,0.00,WUHU21623XXSP,2013-03-17 04:33:00,
2013-03-17 00:38:00,60.6,48.0,29.92,ESE,112,0.0,0.0,63,0.00,,,0.00,WUHU21623XXSP,2013-03-17 04:38:00,
2013-03-17 00:43:00,60.6,48.0,29.92,North,0,0.0,0.0,63,0.00,,,0.00,WUHU21623XXSP,2013-03-17 04:43:00,
2013-03-17 00:48:00,60.6,48.0,29.92,NNE,22,0.0,0.0,63,0.00,,,0.00,WUHU21623XXSP,2013-03-17 04:48:00,
2013-03-17 00:53:00,60.6,48.0,29.92,NNE,22,0.0,0.0,63,0.00,,,0.00,WUHU21623XXSP,2013-03-17 04:53:00,
2013-03-17 00:58:00,60.8,48.2,29.93,ESE,112,0.0,0.0,63,0.00,,,0.00,WUHU21623XXSP,2013-03-17 04:58:00,
2013-03-17 01:03:00,60.8,48.2,29.93,ESE,112,0.0,0.0,63,0.00,,,0.00,WUHU21623XXSP,2013-03-17 05:03:00,
2013-03-17 01:15:00,60.4,47.8,29.93,ESE,112,0.0,0.0,63,0.00,,,0.00,WUHU21623XXSP,2013-03-17 05:15:00,
2013-03-17 01:20:00,60.4,48.2,29.92,NNE,22,0.0,0.0,64,0.00,,,0.00,WUHU21623XXSP,2013-03-17 05:20:00,
2013-03-17 01:25:00,60.4,48.2,29.93,NNE,22,0.0,0.0,64,0.00,,,0.00,WUHU21623XXSP,2013-03-17 05:25:00,
2013-03-17 01:30:00,60.4,48.2,29.92,ESE,112,0.0,0.0,64,0.00,,,0.00,WUHU21623XXSP,2013-03-17 05:30:00,
2013-03-17 01:35:00,60.3,48.1,29.92,South,180,0.0,1.9,64,0.00,,,0.00,WUHU21623XXSP,2013-03-17 05:35:00,
2013-03-17 01:40:00,60.4,48.2,29.92,South,180,0.0,1.9,64,0.00,,,0.00,WUHU21623XXSP,2013-03-17 05:40:00,
2013-03-17 01:45:00,60.4,48.2,29.92,South,180,0.0,0.0,64,0.00,,,0.00,WUHU21623XXSP,2013-03-17 05:45:00,
2013-03-17 01:50:00,60.6,48.0,29.92,ESE,112,0.0,0.0,63,0.00,,,0.00,WUHU21623XXSP,2013-03-17 05:50:00,
2013-03-17 01:55:00,60.6,47.6,29.91,SSW,202,1.4,1.7,62,0.00,,,0.00,WUHU21623XXSP,2013-03-17 05:55:00,
2013-03-17 02:00:00,60.8,47.8,29.91,SSW,202,0.0,1.7,62,0.00,,,0.00,WUHU21623XXSP,2013-03-17 06:00:00,
2013-03-17 02:05:00,60.8,47.8,29.91,SSW,202,0.0,1.7,62,0.00,,,0.00,WUHU21623XXSP,2013-03-17 06:05:00,
2013-03-17 02:10:00,61.3,47.8,29.92,ESE,112,0.0,0.0,61,0.00,,,0.00,WUHU21623XXSP,2013-03-17 06:10:00,
2013-03-17 02:15:00,61.5,47.6,29.92,SSW,202,0.0,0.0,60,0.00,,,0.00,WUHU21623XXSP,2013-03-17 06:15:00,
2013-03-17 02:20:00,61.7,47.8,29.92,West,270,0.0,0.0,60,0.00,,,0.00,WUHU21623XXSP,2013-03-17 06:20:00,
2013-03-17 02:25:00,61.9,47.4,29.92,West,270,0.0,0.0,59,0.00,,,0.00,WUHU21623XXSP,2013-03-17 06:25:00,
2013-03-17 02:30:00,62.6,47.6,29.92,North,0,0.0,0.0,58,0.00,,,0.00,WUHU21623XXSP,2013-03-17 06:30:00,
2013-03-17 02:35:00,62.8,47.8,29.92,SSW,202,4.0,4.6,58,0.00,,,0.00,WUHU21623XXSP,2013-03-17 06:35:00,
2013-03-17 02:40:00,62.8,47.3,29.92,WNW,292,0.0,4.6,57,0.00,,,0.00,WUHU21623XXSP,2013-03-17 06:40:00,
2013-03-17 02:45:00,62.4,47.4,29.92,WNW,292,0.0,4.6,58,0.00,,,0.00,WUHU21623XXSP,2013-03-17 06:45:00,
2013-03-17 02:50:00,62.2,47.3,29.92,WNW,292,0.0,0.0,58,0.00,,,0.00,WUHU21623XXSP,2013-03-17 06:50:00,
2013-03-17 02:55:00,61.7,48.2,29.92,North,0,0.0,0.0,61,0.00,,,0.00,WUHU21623XXSP,2013-03-17 06:55:00,
2013-03-17 03:00:00,60.1,47.5,29.92,North,0,0.0,0.0,63,0.00,,,0.00,WUHU21623XXSP,2013-03-17 07:00:00,
2013-03-17 03:05:00,59.2,46.6,29.92,NNE,22,0.0,0.0,63,0.00,,,0.00,WUHU21623XXSP,2013-03-17 07:05:00,
2013-03-17 03:10:00,58.8,46.6,29.92,South,180,0.0,0.0,64,0.00,,,0.00,WUHU21623XXSP,2013-03-17 07:10:00,
2013-03-17 03:15:00,58.6,46.9,29.92,ESE,112,0.0,0.0,65,0.00,,,0.00,WUHU21623XXSP,2013-03-17 07:15:00,
2013-03-17 03:20:00,58.6,46.9,29.92,West,270,0.0,0.0,65,0.00,,,0.00,WUHU21623XXSP,2013-03-17 07:20:00,
2013-03-17 03:25:00,58.6,46.9,29.92,SSW,202,0.0,0.0,65,0.00,,,0.00,WUHU21623XXSP,2013-03-17 07:25:00,
2013-03-17 03:30:00,58.8,47.0,29.92,West,270,1.7,1.9,65,0.00,,,0.00,WUHU21623XXSP,2013-03-17 07:30:00,
2013-03-17 03:35:00,58.8,46.6,29.91,South,180,0.0,1.9,64,0.00,,,0.00,WUHU21623XXSP,2013-03-17 07:35:00,
2013-03-17 03:41:00,58.8,46.6,29.91,WNW,292,0.0,1.9,64,0.00,,,0.00,WUHU21623XXSP,2013-03-17 07:41:00,
2013-03-17 03:46:00,58.8,46.6,29.91,West,270,0.0,0.0,64,0.00,,,0.00,WUHU21623XXSP,2013-03-17 07:46:00,
2013-03-17 03:51:00,58.8,46.6,29.91,ESE,112,0.0,1.7,64,0.00,,,0.00,WUHU21623XXSP,2013-03-17 07:51:00,
2013-03-17 03:56:00,58.8,46.6,29.91,South,180,0.0,1.7,64,0.00,,,0.00,WUHU21623XXSP,2013-03-17 07:56:00,
2013-03-17 04:01:00,58.8,46.6,29.91,ESE,112,0.0,0.0,64,0.00,,,0.00,WUHU21623XXSP,2013-03-17 08:01:00,
2013-03-17 04:06:00,58.8,46.6,29.91,South,180,0.0,0.0,64,0.00,,,0.00,WUHU21623XXSP,2013-03-17 08:06:00,
2013-03-17 04:11:00,58.8,46.6,29.91,South,180,0.0,0.0,64,0.00,,,0.00,WUHU21623XXSP,2013-03-17 08:11:00,
2013-03-17 04:16:00,58.8,46.6,29.91,South,180,0.0,1.0,64,0.00,,,0.00,WUHU21623XXSP,2013-03-17 08:16:00,
2013-03-17 04:21:00,58.8,46.6,29.91,East,90,1.2,1.3,64,0.00,,,0.00,WUHU21623XXSP,2013-03-17 08:21:00,
2013-03-17 04:26:00,58.8,46.6,29.91,SSW,202,0.0,1.3,64,0.00,,,0.00,WUHU21623XXSP,2013-03-17 08:26:00,
2013-03-17 04:31:00,58.8,47.0,29.91,North,0,0.0,1.3,65,0.00,,,0.00,WUHU21623XXSP,2013-03-17 08:31:00,
2013-03-17 04:36:00,58.3,46.9,29.90,East,90,0.0,0.0,66,0.00,,,0.00,WUHU21623XXSP,2013-03-17 08:36:00,
2013-03-17 04:41:00,57.7,46.8,29.90,NNE,22,0.0,0.0,67,0.00,,,0.00,WUHU21623XXSP,2013-03-17 08:41:00,
2013-03-17 04:46:00,56.7,47.0,29.91,North,0,0.0,0.0,70,0.00,,,0.00,WUHU21623XXSP,2013-03-17 08:46:00,
2013-03-17 04:51:00,56.5,47.2,29.91,West,270,0.0,0.0,71,0.00,,,0.00,WUHU21623XXSP,2013-03-17 08:51:00,
2013-03-17 04:56:00,56.3,46.7,29.91,ESE,112,0.0,0.0,70,0.00,,,0.00,WUHU21623XXSP,2013-03-17 08:56:00,
2013-03-17 05:01:00,56.8,47.2,29.91,WNW,292,0.0,0.0,70,0.00,,,0.00,WUHU21623XXSP,2013-03-17 09:01:00,
2013-03-17 05:06:00,57.0,46.9,29.91,South,180,0.0,1.9,69,0.00,,,0.00,WUHU21623XXSP,2013-03-17 09:06:00,
2013-03-17 05:11:00,57.9,47.0,29.91,WNW,292,0.0,1.9,67,0.00,,,0.00,WUHU21623XXSP,2013-03-17 09:11:00,
2013-03-17 05:16:00,58.3,46.9,29.91,West,270,0.0,0.0,66,0.00,,,0.00,WUHU21623XXSP,2013-03-17 09:16:00,
2013-03-17 05:21:00,58.1,46.8,29.91,NNE,22,0.0,0.0,66,0.00,,,0.00,WUHU21623XXSP,2013-03-17 09:21:00,
2013-03-17 05:26:00,56.8,46.0,29.91,NNE,22,0.0,0.0,67,0.00,,,0.00,WUHU21623XXSP,2013-03-17 09:26:00,
2013-03-17 05:31:00,55.8,46.5,29.91,North,0,0.0,0.0,71,0.00,,,0.00,WUHU21623XXSP,2013-03-17 09:31:00,
2013-03-17 05:37:00,54.5,46.4,29.92,North,0,0.0,0.0,74,0.00,,,0.00,WUHU21623XXSP,2013-03-17 09:37:00,
2013-03-17 05:42:00,53.4,45.7,29.92,NNE,22,0.0,0.0,75,0.00,,,0.00,WUHU21623XXSP,2013-03-17 09:42:00,
2013-03-17 05:47:00,53.2,45.9,29.92,NNE,22,0.0,0.0,76,0.00,,,0.00,WUHU21623XXSP,2013-03-17 09:47:00,
2013-03-17 05:52:00,52.5,45.5,29.92,East,90,0.0,0.0,77,0.00,,,0.00,WUHU21623XXSP,2013-03-17 09:52:00,
2013-03-17 05:57:00,52.3,45.4,29.92,ESE,112,0.0,0.0,77,0.00,,,0.00,WUHU21623XXSP,2013-03-17 09:57:00,
2013-03-17 06:02:00,52.3,45.0,29.93,ESE,112,0.0,0.0,76,0.00,,,0.00,WUHU21623XXSP,2013-03-17 10:02:00,
2013-03-17 06:07:00,52.0,45.0,29.93,ESE,112,0.0,0.0,77,0.00,,,0.00,WUHU21623XXSP,2013-03-17 10:07:00,
2013-03-17 06:12:00,51.8,44.5,29.93,ESE,112,0.0,0.0,76,0.00,,,0.00,WUHU21623XXSP,2013-03-17 10:12:00,
2013-03-17 06:17:00,51.6,44.3,29.93,ESE,112,0.0,0.0,76,0.00,,,0.00,WUHU21623XXSP,2013-03-17 10:17:00,
2013-03-17 06:22:00,51.8,44.5,29.93,East,90,0.0,0.0,76,0.00,,,0.00,WUHU21623XXSP,2013-03-17 10:22:00,
2013-03-17 06:27:00,51.6,44.7,29.93,East,90,0.0,0.0,77,0.00,,,0.00,WUHU21623XXSP,2013-03-17 10:27:00,
2013-03-17 06:32:00,51.6,44.7,29.93,ESE,112,0.0,0.0,77,0.00,,,0.00,WUHU21623XXSP,2013-03-17 10:32:00,
2013-03-17 06:37:00,51.6,44.7,29.93,ESE,112,0.0,0.0,77,0.00,,,0.00,WUHU21623XXSP,2013-03-17 10:37:00,
2013-03-17 06:42:00,51.6,44.3,29.94,ESE,112,0.0,0.0,76,0.00,,,0.00,WUHU21623XXSP,2013-03-17 10:42:00,
2013-03-17 06:47:00,51.6,44.3,29.94,East,90,0.0,0.0,76,0.00,,,0.00,WUHU21623XXSP,2013-03-17 10:47:00,
2013-03-17 06:52:00,51.6,44.7,29.94,ESE,112,0.0,0.0,77,0.00,,,0.00,WUHU21623XXSP,2013-03-17 10:52:00,
2013-03-17 06:58:00,51.3,44.3,29.95,North,0,0.0,0.0,77,0.00,,,0.00,WUHU21623XXSP,2013-03-17 10:58:00,
2013-03-17 07:03:00,50.7,43.8,29.94,NNE,22,0.0,0.0,77,0.00,,,0.00,WUHU21623XXSP,2013-03-17 11:03:00,
2013-03-17 07:08:00,50.5,43.9,29.94,ESE,112,0.0,0.0,78,0.00,,,0.00,WUHU21623XXSP,2013-03-17 11:08:00,
2013-03-17 07:13:00,50.4,43.7,29.94,East,90,0.0,0.0,78,0.00,,,0.00,WUHU21623XXSP,2013-03-17 11:13:00,
2013-03-17 07:18:00,50.2,43.6,29.94,ESE,112,0.0,0.0,78,0.00,,,0.00,WUHU21623XXSP,2013-03-17 11:18:00,
2013-03-17 07:23:00,50.0,43.4,29.94,ESE,112,0.0,0.0,78,0.00,,,0.00,WUHU21623XXSP,2013-03-17 11:23:00,
2013-03-17 07:28:00,49.8,43.2,29.94,ESE,112,0.0,0.0,78,0.00,,,0.00,WUHU21623XXSP,2013-03-17 11:28:00,
2013-03-17 07:33:00,49.8,43.5,29.94,ESE,112,0.0,0.0,79,0.00,,,0.00,WUHU21623XXSP,2013-03-17 11:33:00,
2013-03-17 07:38:00,49.8,43.5,29.95,ESE,112,0.0,0.0,79,0.00,,,0.00,WUHU21623XXSP,2013-03-17 11:38:00,
2013-03-17 07:43:00,49.8,43.5,29.95,ESE,112,0.0,0.0,79,0.00,,,0.00,WUHU21623XXSP,2013-03-17 11:43:00,
2013-03-17 07:48:00,49.8,43.2,29.95,ESE,112,0.0,0.0,78,0.00,,,0.00,WUHU21623XXSP,2013-03-17 11:48:00,
2013-03-17 07:53:00,49.8,43.2,29.95,South,180,0.0,0.0,78,0.00,,,0.00,WUHU21623XXSP,2013-03-17 11:53:00,
2013-03-17 07:58:00,49.8,43.2,29.95,South,180,0.0,0.0,78,0.00,,,0.00,WUHU21623XXSP,2013-03-17 11:58:00,
2013-03-17 08:03:00,49.8,43.2,29.95,South,180,0.0,0.0,78,0.00,,,0.00,WUHU21623XXSP,2013-03-17 12:03:00,
2013-03-17 08:08:00,49.8,43.5,29.96,ESE,112,0.0,0.0,79,0.00,,,0.00,WUHU21623XXSP,2013-03-17 12:08:00,
2013-03-17 08:13:00,49.8,43.2,29.96,South,180,0.0,0.0,78,0.00,,,0.00,WUHU21623XXSP,2013-03-17 12:13:00,
2013-03-17 08:18:00,50.0,43.4,29.96,East,90,0.0,0.0,78,0.00,,,0.00,WUHU21623XXSP,2013-03-17 12:18:00,
2013-03-17 08:23:00,50.2,43.9,29.96,ESE,112,0.0,0.0,79,0.00,,,0.00,WUHU21623XXSP,2013-03-17 12:23:00,
2013-03-17 08:28:00,50.2,43.9,29.96,East,90,0.0,0.0,79,0.00,,,0.00,WUHU21623XXSP,2013-03-17 12:28:00,
2013-03-17 08:33:00,50.5,44.3,29.96,East,90,0.0,0.0,79,0.00,,,0.00,WUHU21623XXSP,2013-03-17 12:33:00,
2013-03-17 08:38:00,50.7,44.4,29.96,ESE,112,0.0,0.0,79,0.00,,,0.00,WUHU21623XXSP,2013-03-17 12:38:00,
2013-03-17 08:43:00,51.4,45.2,29.96,SSW,202,0.0,0.0,79,0.00,,,0.00,WUHU21623XXSP,2013-03-17 12:43:00,
2013-03-17 08:48:00,51.6,45.3,29.96,South,180,0.0,0.0,79,0.00,,,0.00,WUHU21623XXSP,2013-03-17 12:48:00,
2013-03-17 08:53:00,52.2,45.5,29.96,SSW,202,0.0,0.0,78,0.00,,,0.00,WUHU21623XXSP,2013-03-17 12:53:00,
2013-03-17 08:58:00,52.9,46.2,29.97,SSW,202,0.0,0.0,78,0.00,,,0.00,WUHU21623XXSP,2013-03-17 12:58:00,
2013-03-17 09:03:00,53.4,46.4,29.97,West,270,0.0,0.0,77,0.00,,,0.00,WUHU21623XXSP,2013-03-17 13:03:00,
2013-03-17 09:08:00,54.3,46.9,29.97,WNW,292,0.0,0.0,76,0.00,,,0.00,WUHU21623XXSP,2013-03-17 13:08:00,
2013-03-17 09:13:00,55.4,47.6,29.97,WNW,292,0.0,0.0,75,0.00,,,0.00,WUHU21623XXSP,2013-03-17 13:13:00,
2013-03-17 09:18:00,55.9,47.7,29.97,WNW,292,0.0,0.0,74,0.00,,,0.00,WUHU21623XXSP,2013-03-17 13:18:00,
2013-03-17 09:23:00,56.8,47.9,29.97,WNW,292,0.0,0.0,72,0.00,,,0.00,WUHU21623XXSP,2013-03-17 13:23:00,
2013-03-17 09:28:00,58.1,48.7,29.97,West,270,0.0,1.7,71,0.00,,,0.00,WUHU21623XXSP,2013-03-17 13:28:00,
2013-03-17 09:33:00,58.8,48.7,29.97,South,180,0.0,1.7,69,0.00,,,0.00,WUHU21623XXSP,2013-03-17 13:33:00,
2013-03-17 09:38:00,58.8,47.9,29.97,SSW,202,1.7,1.9,67,0.00,,,0.00,WUHU21623XXSP,2013-03-17 13:38:00,
2013-03-17 09:43:00,58.8,47.9,29.97,WNW,292,0.0,3.3,67,0.00,,,0.00,WUHU21623XXSP,2013-03-17 13:43:00,
2013-03-17 09:48:00,59.5,49.0,29.97,SSW,202,4.7,5.4,68,0.00,,,0.00,WUHU21623XXSP,2013-03-17 13:48:00,
2013-03-17 09:53:00,59.7,48.3,29.97,SSW,202,0.0,5.4,66,0.00,,,0.00,WUHU21623XXSP,2013-03-17 13:53:00,
2013-03-17 09:59:00,60.6,49.2,29.97,SSW,202,3.3,7.4,66,0.00,,,0.00,WUHU21623XXSP,2013-03-17 13:59:00,
2013-03-17 10:04:00,61.2,48.9,29.97,West,270,3.8,7.4,64,0.00,,,0.00,WUHU21623XXSP,2013-03-17 14:04:00,
2013-03-17 10:09:00,61.7,49.0,29.97,West,270,3.5,6.8,63,0.00,,,0.00,WUHU21623XXSP,2013-03-17 14:09:00,
2013-03-17 10:14:00,61.9,48.7,29.97,SSW,202,3.3,6.8,62,0.00,,,0.00,WUHU21623XXSP,2013-03-17 14:14:00,
2013-03-17 10:19:00,62.4,49.2,29.97,West,270,8.7,10.0,62,0.00,,,0.00,WUHU21623XXSP,2013-03-17 14:19:00,
2013-03-17 10:24:00,64.2,50.4,29.97,West,270,0.0,10.0,61,0.00,,,0.00,WUHU21623XXSP,2013-03-17 14:24:00,
2013-03-17 10:29:00,65.1,50.9,29.97,West,270,1.2,10.0,60,0.00,,,0.00,WUHU21623XXSP,2013-03-17 14:29:00,
2013-03-17 10:34:00,65.7,51.0,29.97,SSW,202,9.9,11.4,59,0.00,,,0.00,WUHU21623XXSP,2013-03-17 14:34:00,
2013-03-17 10:39:00,65.7,50.5,29.97,West,270,1.7,11.4,58,0.00,,,0.00,WUHU21623XXSP,2013-03-17 14:39:00,
2013-03-17 10:44:00,66.6,51.3,29.97,WNW,292,0.0,11.4,58,0.00,,,0.00,WUHU21623XXSP,2013-03-17 14:44:00,
2013-03-17 10:49:00,67.3,51.0,29.97,West,270,4.0,4.6,56,0.00,,,0.00,WUHU21623XXSP,2013-03-17 14:49:00,
2013-03-17 10:54:00,67.8,51.5,29.97,West,270,0.0,4.6,56,0.00,,,0.00,WUHU21623XXSP,2013-03-17 14:54:00,
2013-03-17 10:59:00,68.4,51.5,29.97,WNW,292,1.7,4.6,55,0.00,,,0.00,WUHU21623XXSP,2013-03-17 14:59:00,
2013-03-17 11:04:00,68.4,51.0,29.97,West,270,0.9,1.9,54,0.00,,,0.00,WUHU21623XXSP,2013-03-17 15:04:00,
2013-03-17 11:09:00,68.0,50.7,29.97,West,270,3.3,3.8,54,0.00,,,0.00,WUHU21623XXSP,2013-03-17 15:09:00,
2013-03-17 11:14:00,68.4,51.5,29.97,WNW,292,0.0,3.8,55,0.00,,,0.00,WUHU21623XXSP,2013-03-17 15:14:00,
2013-03-17 11:19:00,69.1,51.2,29.97,West,270,2.9,3.8,53,0.00,,,0.00,WUHU21623XXSP,2013-03-17 15:19:00,
2013-03-17 11:24:00,69.4,52.0,29.97,WNW,292,2.1,3.3,54,0.00,,,0.00,WUHU21623XXSP,2013-03-17 15:24:00,
2013-03-17 11:29:00,69.8,51.4,29.97,WNW,292,0.0,3.0,52,0.00,,,0.00,WUHU21623XXSP,2013-03-17 15:29:00,
2013-03-17 11:34:00,69.6,51.7,29.96,North,0,1.7,6.0,53,0.00,,,0.00,WUHU21623XXSP,2013-03-17 15:34:00,
2013-03-17 11:39:00,69.6,51.7,29.96,North,0,2.6,7.0,53,0.00,,,0.00,WUHU21623XXSP,2013-03-17 15:39:00,
2013-03-17 11:44:00,69.8,51.9,29.96,West,270,2.1,7.0,53,0.00,,,0.00,WUHU21623XXSP,2013-03-17 15:44:00,
2013-03-17 11:49:00,68.9,50.5,29.96,West,270,1.7,3.3,52,0.00,,,0.00,WUHU21623XXSP,2013-03-17 15:49:00,
2013-03-17 11:54:00,68.7,50.9,29.96,East,90,0.0,3.3,53,0.00,,,0.00,WUHU21623XXSP,2013-03-17 15:54:00,
2013-03-17 11:59:00,69.4,51.5,29.96,WNW,292,1.7,1.9,53,0.00,,,0.00,WUHU21623XXSP,2013-03-17 15:59:00,
2013-03-17 12:04:00,69.3,51.4,29.96,West,270,3.3,3.8,53,0.00,,,0.00,WUHU21623XXSP,2013-03-17 16:04:00,
2013-03-17 12:09:00,68.9,51.0,29.96,West,270,1.2,3.8,53,0.00,,,0.00,WUHU21623XXSP,2013-03-17 16:09:00,
2013-03-17 12:15:00,69.4,51.5,29.96,SSW,202,5.8,6.8,53,0.00,,,0.00,WUHU21623XXSP,2013-03-17 16:15:00,
2013-03-17 12:20:00,71.1,52.5,29.96,West,270,0.0,6.8,52,0.00,,,0.00,WUHU21623XXSP,2013-03-17 16:20:00,
2013-03-17 12:25:00,71.6,52.5,29.96,West,270,7.8,9.0,51,0.00,,,0.00,WUHU21623XXSP,2013-03-17 16:25:00,
2013-03-17 12:30:00,71.4,52.3,29.95,West,270,2.1,9.0,51,0.00,,,0.00,WUHU21623XXSP,2013-03-17 16:30:00,
2013-03-17 12:35:00,71.8,52.6,29.94,WNW,292,0.0,9.0,51,0.00,,,0.00,WUHU21623XXSP,2013-03-17 16:35:00,
2013-03-17 12:40:00,72.7,53.5,29.94,WNW,292,0.0,3.3,51,0.00,,,0.00,WUHU21623XXSP,2013-03-17 16:40:00,
2013-03-17 12:45:00,73.6,53.2,29.94,West,270,5.8,6.8,49,0.00,,,0.00,WUHU21623XXSP,2013-03-17 16:45:00,
2013-03-17 12:50:00,73.2,52.8,29.94,West,270,6.1,7.0,49,0.00,,,0.00,WUHU21623XXSP,2013-03-17 16:50:00,
2013-03-17 12:55:00,73.0,52.7,29.93,West,270,2.1,7.0,49,0.00,,,0.00,WUHU21623XXSP,2013-03-17 16:55:00,
2013-03-17 13:00:00,73.2,52.8,29.93,West,270,0.0,7.0,49,0.00,,,0.00,WUHU21623XXSP,2013-03-17 17:00:00,
2013-03-17 13:05:00,73.6,52.6,29.93,WNW,292,3.5,4.1,48,0.00,,,0.00,WUHU21623XXSP,2013-03-17 17:05:00,
2013-03-17 13:10:00,73.4,53.0,29.93,WNW,292,0.0,4.1,49,0.00,,,0.00,WUHU21623XXSP,2013-03-17 17:10:00,
2013-03-17 13:15:00,72.7,52.4,29.93,WNW,292,0.0,4.1,49,0.00,,,0.00,WUHU21623XXSP,2013-03-17 17:15:00,
2013-03-17 13:20:00,73.6,52.6,29.92,South,180,2.6,3.3,48,0.00,,,0.00,WUHU21623XXSP,2013-03-17 17:20:00,
2013-03-17 13:25:00,74.1,53.1,29.92,WNW,292,1.4,3.0,48,0.00,,,0.00,WUHU21623XXSP,2013-03-17 17:25:00,
2013-03-17 13:30:00,74.1,52.5,29.92,West,270,4.7,9.5,47,0.00,,,0.00,WUHU21623XXSP,2013-03-17 17:30:00,
2013-03-17 13:35:00,75.0,53.4,29.91,WNW,292,0.0,9.5,47,0.00,,,0.00,WUHU21623XXSP,2013-03-17 17:35:00,
2013-03-17 13:40:00,75.0,53.4,29.91,West,270,4.4,5.4,47,0.00,,,0.00,WUHU21623XXSP,2013-03-17 17:40:00,
2013-03-17 13:45:00,74.8,52.6,29.91,WNW,292,1.2,5.1,46,0.00,,,0.00,WUHU21623XXSP,2013-03-17 17:45:00,
2013-03-17 13:50:00,74.5,52.3,29.91,West,270,3.3,5.1,46,0.00,,,0.00,WUHU21623XXSP,2013-03-17 17:50:00,
2013-03-17 13:55:00,73.8,52.2,29.91,SSW,202,1.7,7.6,47,0.00,,,0.00,WUHU21623XXSP,2013-03-17 17:55:00,
2013-03-17 14:00:00,76.3,54.5,29.91,North,0,1.4,7.6,47,0.00,,,0.00,WUHU21623XXSP,2013-03-17 18:00:00,
2013-03-17 14:06:00,76.3,53.3,29.91,West,270,9.4,10.8,45,0.00,,,0.00,WUHU21623XXSP,2013-03-17 18:06:00,
2013-03-17 14:11:00,76.6,53.0,29.90,SSW,202,2.9,10.8,44,0.00,,,0.00,WUHU21623XXSP,2013-03-17 18:11:00,
2013-03-17 14:17:00,76.6,53.0,29.89,SSW,202,7.8,9.0,44,0.00,,,0.00,WUHU21623XXSP,2013-03-17 18:17:00,
2013-03-17 14:23:00,76.8,52.6,29.89,WNW,292,1.4,9.0,43,0.00,,,0.00,WUHU21623XXSP,2013-03-17 18:23:00,
2013-03-17 14:29:00,77.0,53.3,29.89,South,180,6.1,7.0,44,0.00,,,0.00,WUHU21623XXSP,2013-03-17 18:29:00,
2013-03-17 14:34:00,76.3,52.1,29.88,West,270,0.0,7.0,43,0.00,,,0.00,WUHU21623XXSP,2013-03-17 18:34:00,
2013-03-17 14:40:00,73.4,50.0,29.88,WNW,292,0.0,4.6,44,0.00,,,0.00,WUHU21623XXSP,2013-03-17 18:40:00,
2013-03-17 14:46:00,71.8,49.2,29.89,SSW,202,2.9,12.5,45,0.00,,,0.00,WUHU21623XXSP,2013-03-17 18:46:00,
2013-03-17 14:51:00,72.7,50.6,29.88,SSW,202,5.6,12.5,46,0.00,,,0.00,WUHU21623XXSP,2013-03-17 18:51:00,
2013-03-17 14:58:00,72.3,50.3,29.88,WNW,292,6.6,7.6,46,0.00,,,0.00,WUHU21623XXSP,2013-03-17 18:58:00,
2013-03-17 15:03:00,72.1,50.7,29.88,WNW,292,4.0,7.6,47,0.00,,,0.00,WUHU21623XXSP,2013-03-17 19:03:00,
2013-03-17 15:09:00,72.3,50.8,29.88,WNW,292,3.3,10.8,47,0.00,,,0.00,WUHU21623XXSP,2013-03-17 19:09:00,
2013-03-17 15:15:00,72.3,50.8,29.88,SSW,202,3.8,10.8,47,0.00,,,0.00,WUHU21623XXSP,2013-03-17 19:15:00,
2013-03-17 15:21:00,72.5,51.0,29.88,West,270,4.7,7.6,47,0.00,,,0.00,WUHU21623XXSP,2013-03-17 19:21:00,
2013-03-17 15:26:00,72.7,50.6,29.87,West,270,2.6,7.6,46,0.00,,,0.00,WUHU21623XXSP,2013-03-17 19:26:00,
2013-03-17 15:31:00,73.6,51.4,29.87,West,270,2.9,10.4,46,0.00,,,0.00,WUHU21623XXSP,2013-03-17 19:31:00,
2013-03-17 15:37:00,74.3,50.9,29.87,SSW,202,11.6,13.3,44,0.00,,,0.00,WUHU21623XXSP,2013-03-17 19:37:00,
2013-03-17 15:42:00,74.5,50.4,29.87,West,270,4.7,13.3,43,0.00,,,0.00,WUHU21623XXSP,2013-03-17 19:42:00,
2013-03-17 15:47:00,74.1,50.7,29.87,SSW,202,5.2,13.3,44,0.00,,,0.00,WUHU21623XXSP,2013-03-17 19:47:00,
2013-03-17 15:53:00,74.1,51.3,29.87,South,180,4.7,6.0,45,0.00,,,0.00,WUHU21623XXSP,2013-03-17 19:53:00,
2013-03-17 15:58:00,73.8,50.4,29.87,West,270,1.2,17.4,44,0.00,,,0.00,WUHU21623XXSP,2013-03-17 19:58:00,
2013-03-17 16:03:00,73.9,50.5,29.87,South,180,2.3,17.4,44,0.00,,,0.00,WUHU21623XXSP,2013-03-17 20:03:00,
2013-03-17 16:08:00,74.1,50.7,29.87,WNW,292,0.0,14.7,44,0.00,,,0.00,WUHU21623XXSP,2013-03-17 20:08:00,
2013-03-17 16:13:00,74.1,50.7,29.87,West,270,6.1,14.7,44,0.00,,,0.00,WUHU21623XXSP,2013-03-17 20:13:00,
2013-03-17 16:18:00,73.8,50.4,29.87,West,270,2.6,7.0,44,0.00,,,0.00,WUHU21623XXSP,2013-03-17 20:18:00,
2013-03-17 16:23:00,73.9,50.5,29.87,South,180,4.7,7.0,44,0.00,,,0.00,WUHU21623XXSP,2013-03-17 20:23:00,
2013-03-17 16:28:00,74.5,49.8,29.87,WNW,292,4.9,5.7,42,0.00,,,0.00,WUHU21623XXSP,2013-03-17 20:28:00,
2013-03-17 16:33:00,73.6,48.4,29.86,West,270,11.3,13.0,41,0.00,,,0.00,WUHU21623XXSP,2013-03-17 20:33:00,
2013-03-17 16:38:00,73.2,48.1,29.86,SSW,202,4.4,13.0,41,0.00,,,0.00,WUHU21623XXSP,2013-03-17 20:38:00,
2013-03-17 16:43:00,73.0,48.5,29.86,West,270,9.9,13.0,42,0.00,,,0.00,WUHU21623XXSP,2013-03-17 20:43:00,
2013-03-17 16:48:00,73.2,48.1,29.86,SSW,202,1.4,11.4,41,0.00,,,0.00,WUHU21623XXSP,2013-03-17 20:48:00,
2013-03-17 16:53:00,73.0,47.9,29.86,West,270,2.6,11.4,41,0.00,,,0.00,WUHU21623XXSP,2013-03-17 20:53:00,
2013-03-17 16:58:00,72.7,48.2,29.86,SSW,202,6.4,7.4,42,0.00,,,0.00,WUHU21623XXSP,2013-03-17 20:58:00,
2013-03-17 17:03:00,73.2,48.7,29.86,West,270,3.8,7.4,42,0.00,,,0.00,WUHU21623XXSP,2013-03-17 21:03:00,
2013-03-17 17:08:00,73.6,49.0,29.86,SSW,202,3.3,7.4,42,0.00,,,0.00,WUHU21623XXSP,2013-03-17 21:08:00,
2013-03-17 17:13:00,73.4,48.8,29.86,West,270,2.1,6.0,42,0.00,,,0.00,WUHU21623XXSP,2013-03-17 21:13:00,
2013-03-17 17:18:00,73.0,48.5,29.86,West,270,2.1,3.0,42,0.00,,,0.00,WUHU21623XXSP,2013-03-17 21:18:00,
2013-03-17 17:23:00,72.3,47.9,29.86,North,0,0.0,8.7,42,0.00,,,0.00,WUHU21623XXSP,2013-03-17 21:23:00,
2013-03-17 17:28:00,71.8,48.6,29.86,ESE,112,6.1,8.7,44,0.00,,,0.00,WUHU21623XXSP,2013-03-17 21:28:00,
2013-03-17 17:33:00,72.3,49.1,29.86,SSW,202,0.0,7.6,44,0.00,,,0.00,WUHU21623XXSP,2013-03-17 21:33:00,
2013-03-17 17:38:00,72.0,48.1,29.86,South,180,3.8,7.0,43,0.00,,,0.00,WUHU21623XXSP,2013-03-17 21:38:00,
2013-03-17 17:43:00,72.0,48.1,29.85,West,270,4.0,11.1,43,0.00,,,0.00,WUHU21623XXSP,2013-03-17 21:43:00,
2013-03-17 17:48:00,71.4,48.3,29.86,SSW,202,3.5,11.1,44,0.00,,,0.00,WUHU21623XXSP,2013-03-17 21:48:00,
2013-03-17 17:53:00,71.4,48.3,29.86,South,180,1.4,14.1,44,0.00,,,0.00,WUHU21623XXSP,2013-03-17 21:53:00,
2013-03-17 17:59:00,71.4,48.3,29.86,WNW,292,0.0,14.1,44,0.00,,,0.00,WUHU21623XXSP,2013-03-17 21:59:00,
2013-03-17 18:04:00,71.2,48.1,29.86,SSW,202,4.7,7.6,44,0.00,,,0.00,WUHU21623XXSP,2013-03-17 22:04:00,
2013-03-17 18:09:00,70.9,47.8,29.86,SSW,202,2.3,10.4,44,0.00,,,0.00,WUHU21623XXSP,2013-03-17 22:09:00,
2013-03-17 18:14:00,71.2,48.1,29.87,ESE,112,2.1,10.4,44,0.00,,,0.00,WUHU21623XXSP,2013-03-17 22:14:00,
2013-03-17 18:19:00,70.9,47.2,29.87,West,270,9.4,14.7,43,0.00,,,0.00,WUHU21623XXSP,2013-03-17 22:19:00,
2013-03-17 18:24:00,70.7,47.0,29.87,West,270,1.7,14.7,43,0.00,,,0.00,WUHU21623XXSP,2013-03-17 22:24:00,
2013-03-17 18:29:00,70.7,47.0,29.87,South,180,9.0,14.4,43,0.00,,,0.00,WUHU21623XXSP,2013-03-17 22:29:00,
2013-03-17 18:34:00,70.5,46.9,29.87,SSW,202,9.9,11.4,43,0.00,,,0.00,WUHU21623XXSP,2013-03-17 22:34:00,
2013-03-17 18:39:00,70.3,46.1,29.87,West,270,5.8,11.4,42,0.00,,,0.00,WUHU21623XXSP,2013-03-17 22:39:00,
2013-03-17 18:44:00,70.2,45.9,29.87,WNW,292,0.0,11.4,42,0.00,,,0.00,WUHU21623XXSP,2013-03-17 22:44:00,
2013-03-17 18:49:00,70.0,45.8,29.87,West,270,6.4,8.7,42,0.00,,,0.00,WUHU21623XXSP,2013-03-17 22:49:00,
2013-03-17 18:54:00,69.6,45.4,29.87,West,270,1.2,8.7,42,0.00,,,0.00,WUHU21623XXSP,2013-03-17 22:54:00,
2013-03-17 18:59:00,69.4,45.3,29.87,South,180,2.3,9.5,42,0.00,,,0.00,WUHU21623XXSP,2013-03-17 22:59:00,
2013-03-17 19:04:00,69.1,45.0,29.87,South,180,2.3,9.5,42,0.00,,,0.00,WUHU21623XXSP,2013-03-17 23:04:00,
2013-03-17 19:09:00,68.9,44.8,29.87,ESE,112,2.3,7.4,42,0.00,,,0.00,WUHU21623XXSP,2013-03-17 23:09:00,
2013-03-17 19:14:00,68.7,44.6,29.87,SSW,202,0.0,2.7,42,0.00,,,0.00,WUHU21623XXSP,2013-03-17 23:14:00,
2013-03-17 19:19:00,68.4,44.9,29.87,South,180,0.0,2.7,43,0.00,,,0.00,WUHU21623XXSP,2013-03-17 23:19:00,
2013-03-17 19:24:00,68.2,44.7,29.87,SSW,202,2.6,3.0,43,0.00,,,0.00,WUHU21623XXSP,2013-03-17 23:24:00,
2013-03-17 19:29:00,67.8,45.0,29.88,ESE,112,2.3,4.1,44,0.00,,,0.00,WUHU21623XXSP,2013-03-17 23:29:00,
2013-03-17 19:34:00,67.6,44.9,29.88,West,270,2.1,7.4,44,0.00,,,0.00,WUHU21623XXSP,2013-03-17 23:34:00,
2013-03-17 19:39:00,67.3,45.1,29.88,West,270,2.1,7.4,45,0.00,,,0.00,WUHU21623XXSP,2013-03-17 23:39:00,
2013-03-17 19:44:00,67.3,45.1,29.89,SSW,202,1.7,3.8,45,0.00,,,0.00,WUHU21623XXSP,2013-03-17 23:44:00,
2013-03-17 19:49:00,66.9,45.4,29.89,South,180,2.1,8.4,46,0.00,,,0.00,WUHU21623XXSP,2013-03-17 23:49:00,
2013-03-17 19:54:00,66.7,45.2,29.89,SSW,202,0.0,8.4,46,0.00,,,0.00,WUHU21623XXSP,2013-03-17 23:54:00,
2013-03-17 19:59:00,66.4,45.5,29.89,SSW,202,2.1,2.4,47,0.00,,,0.00,WUHU21623XXSP,2013-03-17 23:59:00,
2013-03-17 20:04:00,66.0,45.8,29.89,SSW,202,0.0,2.4,48,0.00,,,0.00,WUHU21623XXSP,2013-03-18 00:04:00,
2013-03-17 20:09:00,65.8,46.2,29.89,SSW,202,1.7,4.6,49,0.00,,,0.00,WUHU21623XXSP,2013-03-18 00:09:00,
2013-03-17 20:14:00,65.5,46.9,29.89,South,180,1.4,6.0,51,0.00,,,0.00,WUHU21623XXSP,2013-03-18 00:14:00,
2013-03-17 20:19:00,65.1,46.5,29.90,NNE,22,0.0,6.0,51,0.00,,,0.00,WUHU21623XXSP,2013-03-18 00:19:00,
2013-03-17 20:24:00,64.9,47.3,29.90,ESE,112,0.0,1.7,53,0.00,,,0.00,WUHU21623XXSP,2013-03-18 00:24:00,
2013-03-17 20:29:00,64.6,47.4,29.90,ESE,112,2.3,6.8,54,0.00,,,0.00,WUHU21623XXSP,2013-03-18 00:29:00,
2013-03-17 20:34:00,64.2,47.1,29.90,SSW,202,2.1,6.8,54,0.00,,,0.00,WUHU21623XXSP,2013-03-18 00:34:00,
2013-03-17 20:39:00,64.2,47.6,29.90,South,180,0.0,2.7,55,0.00,,,0.00,WUHU21623XXSP,2013-03-18 00:39:00,
2013-03-17 20:44:00,64.0,47.4,29.90,South,180,1.4,2.4,55,0.00,,,0.00,WUHU21623XXSP,2013-03-18 00:44:00,
2013-03-17 20:49:00,63.9,47.8,29.90,SSW,202,2.3,7.0,56,0.00,,,0.00,WUHU21623XXSP,2013-03-18 00:49:00,
2013-03-17 20:55:00,63.7,47.6,29.90,SSW,202,1.4,7.0,56,0.00,,,0.00,WUHU21623XXSP,2013-03-18 00:55:00,
2013-03-17 21:00:00,63.5,47.4,29.90,SSW,202,2.6,5.1,56,0.00,,,0.00,WUHU21623XXSP,2013-03-18 01:00:00,
2013-03-17 21:05:00,63.1,47.1,29.90,SSW,202,2.1,3.0,56,0.00,,,0.00,WUHU21623XXSP,2013-03-18 01:05:00,
2013-03-17 21:10:00,63.1,47.1,29.90,WNW,292,0.0,3.0,56,0.00,,,0.00,WUHU21623XXSP,2013-03-18 01:10:00,
2013-03-17 21:15:00,63.0,47.4,29.90,South,180,2.3,2.7,57,0.00,,,0.00,WUHU21623XXSP,2013-03-18 01:15:00,
2013-03-17 21:20:00,62.8,47.3,29.90,SSW,202,2.3,2.7,57,0.00,,,0.00,WUHU21623XXSP,2013-03-18 01:20:00,
2013-03-17 21:25:00,62.8,47.3,29.90,SSW,202,0.0,2.7,57,0.00,,,0.00,WUHU21623XXSP,2013-03-18 01:25:00,
2013-03-17 21:30:00,62.4,46.9,29.90,South,180,1.4,2.7,57,0.00,,,0.00,WUHU21623XXSP,2013-03-18 01:30:00,
2013-03-17 21:35:00,62.4,47.4,29.90,South,180,1.7,3.0,58,0.00,,,0.00,WUHU21623XXSP,2013-03-18 01:35:00,
2013-03-17 21:40:00,62.4,47.4,29.90,SSW,202,1.7,3.0,58,0.00,,,0.00,WUHU21623XXSP,2013-03-18 01:40:00,
2013-03-17 21:45:00,62.2,47.3,29.90,SSW,202,0.0,1.9,58,0.00,,,0.00,WUHU21623XXSP,2013-03-18 01:45:00,
2013-03-17 21:50:00,61.7,46.8,29.90,South,180,1.7,2.7,58,0.00,,,0.00,WUHU21623XXSP,2013-03-18 01:50:00,
2013-03-17 21:55:00,61.3,46.9,29.90,South,180,1.7,2.7,59,0.00,,,0.00,WUHU21623XXSP,2013-03-18 01:55:00,
2013-03-17 22:00:00,61.2,46.8,29.90,South,180,0.9,1.9,59,0.00,,,0.00,WUHU21623XXSP,2013-03-18 02:00:00,
2013-03-17 22:05:00,60.8,46.9,29.90,South,180,0.0,1.9,60,0.00,,,0.00,WUHU21623XXSP,2013-03-18 02:05:00,
2013-03-17 22:10:00,60.8,46.9,29.90,South,180,2.9,3.3,60,0.00,,,0.00,WUHU21623XXSP,2013-03-18 02:10:00,
2013-03-17 22:15:00,60.8,46.9,29.90,South,180,0.0,3.3,60,0.00,,,0.00,WUHU21623XXSP,2013-03-18 02:15:00,
2013-03-17 22:20:00,60.6,46.8,29.90,ESE,112,2.3,3.3,60,0.00,,,0.00,WUHU21623XXSP,2013-03-18 02:20:00,
2013-03-17 22:25:00,60.4,46.6,29.90,SSW,202,0.0,2.7,60,0.00,,,0.00,WUHU21623XXSP,2013-03-18 02:25:00,
2013-03-17 22:30:00,60.4,46.6,29.90,SSW,202,2.1,2.7,60,0.00,,,0.00,WUHU21623XXSP,2013-03-18 02:30:00,
2013-03-17 22:35:00,60.3,46.8,29.90,SSW,202,0.0,5.4,61,0.00,,,0.00,WUHU21623XXSP,2013-03-18 02:35:00,
2013-03-17 22:40:00,60.1,46.6,29.90,South,180,3.5,5.4,61,0.00,,,0.00,WUHU21623XXSP,2013-03-18 02:40:00,
2013-03-17 22:45:00,60.1,46.6,29.90,ESE,112,3.5,4.1,61,0.00,,,0.00,WUHU21623XXSP,2013-03-18 02:45:00,
2013-03-17 22:50:00,59.9,46.9,29.90,South,180,3.5,4.1,62,0.00,,,0.00,WUHU21623XXSP,2013-03-18 02:50:00,
2013-03-17 22:55:00,59.7,46.7,29.91,South,180,2.6,4.1,62,0.00,,,0.00,WUHU21623XXSP,2013-03-18 02:55:00,
2013-03-17 23:00:00,59.5,46.5,29.91,South,180,2.1,4.1,62,0.00,,,0.00,WUHU21623XXSP,2013-03-18 03:00:00,
2013-03-17 23:05:00,59.2,46.1,29.91,South,180,4.9,5.7,62,0.00,,,0.00,WUHU21623XXSP,2013-03-18 03:05:00,
2013-03-17 23:10:00,58.8,46.2,29.91,SSW,202,6.6,7.6,63,0.00,,,0.00,WUHU21623XXSP,2013-03-18 03:10:00,
2013-03-17 23:15:00,59.4,46.7,29.91,SSW,202,4.7,7.6,63,0.00,,,0.00,WUHU21623XXSP,2013-03-18 03:15:00,
2013-03-17 23:20:00,59.2,46.6,29.91,ESE,112,0.0,7.6,63,0.00,,,0.00,WUHU21623XXSP,2013-03-18 03:20:00,
2013-03-17 23:25:00,59.0,46.4,29.91,SSW,202,2.1,5.4,63,0.00,,,0.00,WUHU21623XXSP,2013-03-18 03:25:00,
2013-03-17 23:30:00,59.2,46.6,29.91,SSW,202,0.0,5.4,63,0.00,,,0.00,WUHU21623XXSP,2013-03-18 03:30:00,
2013-03-17 23:35:00,59.4,46.7,29.91,SSW,202,2.9,3.8,63,0.00,,,0.00,WUHU21623XXSP,2013-03-18 03:35:00,
2013-03-17 23:40:00,59.5,46.9,29.91,SSW,202,3.3,3.8,63,0.00,,,0.00,WUHU21623XXSP,2013-03-18 03:40:00,
2013-03-17 23:45:00,59.5,46.9,29.91,South,180,0.0,3.8,63,0.00,,,0.00,WUHU21623XXSP,2013-03-18 03:45:00,
2013-03-17 23:50:00,58.6,46.5,29.91,West,270,3.3,3.8,64,0.00,,,0.00,WUHU21623XXSP,2013-03-18 03:50:00,
2013-03-17 23:55:00,58.3,46.1,29.91,SSW,202,4.9,5.7,64,0.00,,,0.00,WUHU21623XXSP,2013-03-18 03:55:00,